sensor_id;sensor_type;location;lat;lon;timestamp;P1;durP1;ratioP1;P2;durP2;ratioP2
60859;SDS011;46694;54.382;9.708;2022-08-03T00:02:29;12.80;;;9.33;;
60859;SDS011;46694;54.382;9.708;2022-08-03T00:05:08;17.10;;;8.97;;
60859;SDS011;46694;54.382;9.708;2022-08-03T00:07:48;10.13;;;8.97;;
60859;SDS011;46694;54.382;9.708;2022-08-03T00:10:28;9.13;;;8.27;;
60859;SDS011;46694;54.382;9.708;2022-08-03T00:13:08;9.20;;;8.30;;
60859;SDS011;46694;54.382;9.708;2022-08-03T00:15:50;10.40;;;8.40;;
60859;SDS011;46694;54.382;9.708;2022-08-03T00:18:30;9.27;;;8.33;;
60859;SDS011;46694;54.382;9.708;2022-08-03T00:21:10;11.13;;;9.00;;
60859;SDS011;46694;54.382;9.708;2022-08-03T00:23:50;9.03;;;8.10;;
60859;SDS011;46694;54.382;9.708;2022-08-03T00:26:29;9.27;;;8.40;;
60859;SDS011;46694;54.382;9.708;2022-08-03T00:29:09;8.63;;;7.70;;
60859;SDS011;46694;54.382;9.708;2022-08-03T00:31:49;9.57;;;8.40;;
60859;SDS011;46694;54.382;9.708;2022-08-03T00:34:29;10.73;;;8.53;;
60859;SDS011;46694;54.382;9.708;2022-08-03T00:37:09;9.00;;;8.23;;
60859;SDS011;46694;54.382;9.708;2022-08-03T00:39:48;11.37;;;7.40;;
60859;SDS011;46694;54.382;9.708;2022-08-03T00:42:28;11.50;;;7.47;;
60859;SDS011;46694;54.382;9.708;2022-08-03T00:45:08;18.20;;;7.03;;
60859;SDS011;46694;54.382;9.708;2022-08-03T00:47:47;12.87;;;6.80;;
60859;SDS011;46694;54.382;9.708;2022-08-03T00:50:28;10.90;;;6.90;;
60859;SDS011;46694;54.382;9.708;2022-08-03T00:53:10;10.13;;;7.07;;
60859;SDS011;46694;54.382;9.708;2022-08-03T00:55:50;9.93;;;7.50;;
60859;SDS011;46694;54.382;9.708;2022-08-03T00:58:29;9.13;;;7.37;;
60859;SDS011;46694;54.382;9.708;2022-08-03T01:01:09;7.90;;;7.10;;
60859;SDS011;46694;54.382;9.708;2022-08-03T01:03:50;12.00;;;7.87;;
60859;SDS011;46694;54.382;9.708;2022-08-03T01:06:33;9.87;;;7.57;;
60859;SDS011;46694;54.382;9.708;2022-08-03T01:15:42;14.37;;;8.03;;
60859;SDS011;46694;54.382;9.708;2022-08-03T01:21:58;10.63;;;8.00;;
60859;SDS011;46694;54.382;9.708;2022-08-03T01:29:05;8.90;;;7.30;;
60859;SDS011;46694;54.382;9.708;2022-08-03T01:32:11;9.67;;;7.73;;
60859;SDS011;46694;54.382;9.708;2022-08-03T01:35:04;9.33;;;8.30;;
60859;SDS011;46694;54.382;9.708;2022-08-03T01:37:50;9.27;;;8.37;;
60859;SDS011;46694;54.382;9.708;2022-08-03T01:40:35;12.80;;;8.93;;
60859;SDS011;46694;54.382;9.708;2022-08-03T01:43:20;9.37;;;8.47;;
60859;SDS011;46694;54.382;9.708;2022-08-03T01:46:05;11.60;;;8.87;;
60859;SDS011;46694;54.382;9.708;2022-08-03T01:48:47;9.67;;;8.77;;
60859;SDS011;46694;54.382;9.708;2022-08-03T01:51:27;11.77;;;8.17;;
60859;SDS011;46694;54.382;9.708;2022-08-03T01:54:08;11.63;;;8.80;;
60859;SDS011;46694;54.382;9.708;2022-08-03T01:56:50;10.97;;;8.30;;
60859;SDS011;46694;54.382;9.708;2022-08-03T01:59:31;10.27;;;7.90;;
60859;SDS011;46694;54.382;9.708;2022-08-03T02:02:13;10.53;;;9.00;;
60859;SDS011;46694;54.382;9.708;2022-08-03T02:04:55;10.13;;;8.20;;
60859;SDS011;46694;54.382;9.708;2022-08-03T02:07:38;12.53;;;8.70;;
60859;SDS011;46694;54.382;9.708;2022-08-03T02:10:19;9.90;;;8.63;;
60859;SDS011;46694;54.382;9.708;2022-08-03T02:13:01;9.17;;;8.33;;
60859;SDS011;46694;54.382;9.708;2022-08-03T02:15:43;12.60;;;8.93;;
60859;SDS011;46694;54.382;9.708;2022-08-03T02:18:24;10.73;;;8.77;;
60859;SDS011;46694;54.382;9.708;2022-08-03T02:21:06;11.80;;;9.00;;
60859;SDS011;46694;54.382;9.708;2022-08-03T02:23:48;17.00;;;8.93;;
60859;SDS011;46694;54.382;9.708;2022-08-03T02:26:28;9.73;;;8.10;;
60859;SDS011;46694;54.382;9.708;2022-08-03T02:29:17;15.30;;;8.50;;
60859;SDS011;46694;54.382;9.708;2022-08-03T02:32:03;10.40;;;8.60;;
60859;SDS011;46694;54.382;9.708;2022-08-03T02:34:45;13.50;;;8.03;;
60859;SDS011;46694;54.382;9.708;2022-08-03T02:37:28;12.03;;;7.70;;
60859;SDS011;46694;54.382;9.708;2022-08-03T02:40:12;8.23;;;7.53;;
60859;SDS011;46694;54.382;9.708;2022-08-03T02:42:54;10.50;;;7.83;;
60859;SDS011;46694;54.382;9.708;2022-08-03T02:45:45;9.33;;;8.43;;
60859;SDS011;46694;54.382;9.708;2022-08-03T02:48:27;12.13;;;8.40;;
60859;SDS011;46694;54.382;9.708;2022-08-03T02:51:09;8.67;;;7.80;;
60859;SDS011;46694;54.382;9.708;2022-08-03T02:53:49;9.50;;;8.60;;
60859;SDS011;46694;54.382;9.708;2022-08-03T02:56:30;9.73;;;8.50;;
60859;SDS011;46694;54.382;9.708;2022-08-03T02:59:11;15.33;;;10.57;;
60859;SDS011;46694;54.382;9.708;2022-08-03T03:01:53;15.43;;;9.60;;
60859;SDS011;46694;54.382;9.708;2022-08-03T03:04:33;10.93;;;8.90;;
60859;SDS011;46694;54.382;9.708;2022-08-03T03:07:13;13.23;;;10.60;;
60859;SDS011;46694;54.382;9.708;2022-08-03T03:09:53;13.83;;;9.70;;
60859;SDS011;46694;54.382;9.708;2022-08-03T03:12:34;17.60;;;10.00;;
60859;SDS011;46694;54.382;9.708;2022-08-03T03:15:15;12.57;;;10.13;;
60859;SDS011;46694;54.382;9.708;2022-08-03T03:17:56;12.20;;;11.00;;
60859;SDS011;46694;54.382;9.708;2022-08-03T03:20:38;12.13;;;9.90;;
60859;SDS011;46694;54.382;9.708;2022-08-03T03:23:22;12.40;;;10.30;;
60859;SDS011;46694;54.382;9.708;2022-08-03T03:26:03;11.60;;;10.03;;
60859;SDS011;46694;54.382;9.708;2022-08-03T03:28:44;13.20;;;9.90;;
60859;SDS011;46694;54.382;9.708;2022-08-03T03:31:24;10.80;;;9.87;;
60859;SDS011;46694;54.382;9.708;2022-08-03T03:34:04;12.70;;;10.53;;
60859;SDS011;46694;54.382;9.708;2022-08-03T03:36:43;13.37;;;12.00;;
60859;SDS011;46694;54.382;9.708;2022-08-03T03:39:23;13.47;;;12.17;;
60859;SDS011;46694;54.382;9.708;2022-08-03T03:42:02;13.23;;;11.73;;
60859;SDS011;46694;54.382;9.708;2022-08-03T03:44:43;13.03;;;11.80;;
60859;SDS011;46694;54.382;9.708;2022-08-03T03:47:22;12.57;;;11.27;;
60859;SDS011;46694;54.382;9.708;2022-08-03T03:50:05;13.60;;;12.40;;
60859;SDS011;46694;54.382;9.708;2022-08-03T03:52:45;12.13;;;11.03;;
60859;SDS011;46694;54.382;9.708;2022-08-03T03:55:25;13.93;;;11.50;;
60859;SDS011;46694;54.382;9.708;2022-08-03T03:58:05;13.67;;;11.20;;
60859;SDS011;46694;54.382;9.708;2022-08-03T04:00:45;12.60;;;11.10;;
60859;SDS011;46694;54.382;9.708;2022-08-03T04:03:25;13.90;;;12.43;;
60859;SDS011;46694;54.382;9.708;2022-08-03T04:06:04;13.37;;;11.93;;
60859;SDS011;46694;54.382;9.708;2022-08-03T04:09:02;14.83;;;11.97;;
60859;SDS011;46694;54.382;9.708;2022-08-03T04:12:21;15.13;;;11.50;;
60859;SDS011;46694;54.382;9.708;2022-08-03T04:15:02;14.17;;;12.23;;
60859;SDS011;46694;54.382;9.708;2022-08-03T04:17:44;12.87;;;11.63;;
60859;SDS011;46694;54.382;9.708;2022-08-03T04:20:27;19.43;;;12.90;;
60859;SDS011;46694;54.382;9.708;2022-08-03T04:23:09;15.30;;;11.87;;
60859;SDS011;46694;54.382;9.708;2022-08-03T04:25:51;12.33;;;10.70;;
60859;SDS011;46694;54.382;9.708;2022-08-03T04:28:32;13.40;;;11.30;;
60859;SDS011;46694;54.382;9.708;2022-08-03T04:31:13;15.10;;;11.13;;
60859;SDS011;46694;54.382;9.708;2022-08-03T04:33:54;15.40;;;12.20;;
60859;SDS011;46694;54.382;9.708;2022-08-03T04:36:36;14.77;;;10.60;;
60859;SDS011;46694;54.382;9.708;2022-08-03T04:39:25;13.27;;;11.00;;
60859;SDS011;46694;54.382;9.708;2022-08-03T04:42:10;11.17;;;10.03;;
60859;SDS011;46694;54.382;9.708;2022-08-03T04:44:51;12.10;;;8.93;;
60859;SDS011;46694;54.382;9.708;2022-08-03T04:47:33;9.93;;;8.87;;
60859;SDS011;46694;54.382;9.708;2022-08-03T04:50:15;14.90;;;9.93;;
60859;SDS011;46694;54.382;9.708;2022-08-03T04:52:55;11.23;;;7.67;;
60859;SDS011;46694;54.382;9.708;2022-08-03T04:55:35;10.63;;;7.13;;
60859;SDS011;46694;54.382;9.708;2022-08-03T04:58:15;15.07;;;8.43;;
60859;SDS011;46694;54.382;9.708;2022-08-03T05:00:54;9.03;;;8.13;;
60859;SDS011;46694;54.382;9.708;2022-08-03T05:03:34;7.93;;;7.13;;
60859;SDS011;46694;54.382;9.708;2022-08-03T05:06:14;9.60;;;7.07;;
60859;SDS011;46694;54.382;9.708;2022-08-03T05:08:53;11.90;;;8.03;;
60859;SDS011;46694;54.382;9.708;2022-08-03T05:11:33;8.57;;;7.40;;
60859;SDS011;46694;54.382;9.708;2022-08-03T05:14:12;9.53;;;8.20;;
60859;SDS011;46694;54.382;9.708;2022-08-03T05:16:52;13.50;;;7.97;;
60859;SDS011;46694;54.382;9.708;2022-08-03T05:19:32;10.60;;;8.00;;
60859;SDS011;46694;54.382;9.708;2022-08-03T05:22:11;16.73;;;8.73;;
60859;SDS011;46694;54.382;9.708;2022-08-03T05:24:51;7.60;;;7.00;;
60859;SDS011;46694;54.382;9.708;2022-08-03T05:27:31;12.47;;;7.93;;
60859;SDS011;46694;54.382;9.708;2022-08-03T05:30:11;11.10;;;7.90;;
60859;SDS011;46694;54.382;9.708;2022-08-03T05:32:51;10.63;;;7.30;;
60859;SDS011;46694;54.382;9.708;2022-08-03T05:35:31;8.50;;;7.60;;
60859;SDS011;46694;54.382;9.708;2022-08-03T05:38:12;9.43;;;7.53;;
60859;SDS011;46694;54.382;9.708;2022-08-03T05:40:52;9.90;;;7.20;;
60859;SDS011;46694;54.382;9.708;2022-08-03T05:43:32;12.20;;;7.13;;
60859;SDS011;46694;54.382;9.708;2022-08-03T05:46:11;20.23;;;6.97;;
60859;SDS011;46694;54.382;9.708;2022-08-03T05:48:51;9.80;;;6.80;;
60859;SDS011;46694;54.382;9.708;2022-08-03T05:51:30;13.20;;;6.10;;
60859;SDS011;46694;54.382;9.708;2022-08-03T05:54:10;13.27;;;5.80;;
60859;SDS011;46694;54.382;9.708;2022-08-03T05:56:50;12.50;;;5.80;;
60859;SDS011;46694;54.382;9.708;2022-08-03T05:59:29;10.20;;;5.70;;
60859;SDS011;46694;54.382;9.708;2022-08-03T06:02:09;5.83;;;5.23;;
60859;SDS011;46694;54.382;9.708;2022-08-03T06:04:48;10.60;;;4.77;;
60859;SDS011;46694;54.382;9.708;2022-08-03T06:07:28;8.03;;;4.33;;
60859;SDS011;46694;54.382;9.708;2022-08-03T06:10:08;4.93;;;4.20;;
60859;SDS011;46694;54.382;9.708;2022-08-03T06:12:47;4.20;;;3.80;;
60859;SDS011;46694;54.382;9.708;2022-08-03T06:15:28;4.90;;;4.37;;
60859;SDS011;46694;54.382;9.708;2022-08-03T06:18:11;8.23;;;5.07;;
60859;SDS011;46694;54.382;9.708;2022-08-03T06:20:50;6.43;;;4.03;;
60859;SDS011;46694;54.382;9.708;2022-08-03T06:23:30;9.20;;;3.70;;
60859;SDS011;46694;54.382;9.708;2022-08-03T06:26:10;5.03;;;3.83;;
60859;SDS011;46694;54.382;9.708;2022-08-03T06:28:50;4.87;;;3.50;;
60859;SDS011;46694;54.382;9.708;2022-08-03T06:31:29;8.57;;;3.43;;
60859;SDS011;46694;54.382;9.708;2022-08-03T06:34:09;3.67;;;2.90;;
60859;SDS011;46694;54.382;9.708;2022-08-03T06:36:49;12.73;;;3.20;;
60859;SDS011;46694;54.382;9.708;2022-08-03T06:39:28;5.27;;;4.03;;
60859;SDS011;46694;54.382;9.708;2022-08-03T06:42:08;7.43;;;3.67;;
60859;SDS011;46694;54.382;9.708;2022-08-03T06:44:48;9.40;;;3.60;;
60859;SDS011;46694;54.382;9.708;2022-08-03T06:47:29;6.87;;;3.13;;
60859;SDS011;46694;54.382;9.708;2022-08-03T06:50:08;5.27;;;2.83;;
60859;SDS011;46694;54.382;9.708;2022-08-03T06:52:48;4.57;;;3.07;;
60859;SDS011;46694;54.382;9.708;2022-08-03T06:55:28;7.97;;;2.70;;
60859;SDS011;46694;54.382;9.708;2022-08-03T06:58:08;8.07;;;2.50;;
60859;SDS011;46694;54.382;9.708;2022-08-03T07:00:47;11.57;;;2.63;;
60859;SDS011;46694;54.382;9.708;2022-08-03T07:03:27;4.67;;;2.60;;
60859;SDS011;46694;54.382;9.708;2022-08-03T07:06:07;6.70;;;2.30;;
60859;SDS011;46694;54.382;9.708;2022-08-03T07:08:46;8.73;;;2.47;;
60859;SDS011;46694;54.382;9.708;2022-08-03T07:11:26;11.57;;;3.03;;
60859;SDS011;46694;54.382;9.708;2022-08-03T07:14:06;6.03;;;2.50;;
60859;SDS011;46694;54.382;9.708;2022-08-03T07:16:46;10.27;;;3.00;;
60859;SDS011;46694;54.382;9.708;2022-08-03T07:19:25;5.63;;;3.23;;
60859;SDS011;46694;54.382;9.708;2022-08-03T07:22:05;5.30;;;2.80;;
60859;SDS011;46694;54.382;9.708;2022-08-03T07:24:46;7.30;;;3.10;;
60859;SDS011;46694;54.382;9.708;2022-08-03T07:27:45;4.03;;;2.13;;
60859;SDS011;46694;54.382;9.708;2022-08-03T07:30:26;8.93;;;3.30;;
60859;SDS011;46694;54.382;9.708;2022-08-03T07:33:06;7.83;;;2.60;;
60859;SDS011;46694;54.382;9.708;2022-08-03T07:35:46;14.10;;;2.50;;
60859;SDS011;46694;54.382;9.708;2022-08-03T07:38:26;5.60;;;3.03;;
60859;SDS011;46694;54.382;9.708;2022-08-03T07:41:05;7.53;;;2.67;;
60859;SDS011;46694;54.382;9.708;2022-08-03T07:43:45;6.33;;;2.30;;
60859;SDS011;46694;54.382;9.708;2022-08-03T07:46:25;5.33;;;2.30;;
60859;SDS011;46694;54.382;9.708;2022-08-03T07:49:04;5.77;;;2.83;;
60859;SDS011;46694;54.382;9.708;2022-08-03T07:51:43;6.63;;;2.17;;
60859;SDS011;46694;54.382;9.708;2022-08-03T07:54:23;6.47;;;1.80;;
60859;SDS011;46694;54.382;9.708;2022-08-03T07:57:03;6.10;;;1.87;;
60859;SDS011;46694;54.382;9.708;2022-08-03T07:59:44;4.10;;;1.70;;
60859;SDS011;46694;54.382;9.708;2022-08-03T08:02:25;4.83;;;2.03;;
60859;SDS011;46694;54.382;9.708;2022-08-03T08:05:04;4.43;;;2.00;;
60859;SDS011;46694;54.382;9.708;2022-08-03T08:07:44;6.30;;;2.17;;
60859;SDS011;46694;54.382;9.708;2022-08-03T08:10:24;5.37;;;2.40;;
60859;SDS011;46694;54.382;9.708;2022-08-03T08:13:03;8.47;;;2.50;;
60859;SDS011;46694;54.382;9.708;2022-08-03T08:15:43;6.13;;;1.73;;
60859;SDS011;46694;54.382;9.708;2022-08-03T08:18:22;4.17;;;1.70;;
60859;SDS011;46694;54.382;9.708;2022-08-03T08:21:02;9.80;;;2.20;;
60859;SDS011;46694;54.382;9.708;2022-08-03T08:23:42;8.43;;;1.93;;
60859;SDS011;46694;54.382;9.708;2022-08-03T08:26:21;8.23;;;2.23;;
60859;SDS011;46694;54.382;9.708;2022-08-03T08:29:01;4.40;;;1.80;;
60859;SDS011;46694;54.382;9.708;2022-08-03T08:31:42;5.63;;;2.53;;
60859;SDS011;46694;54.382;9.708;2022-08-03T08:34:21;5.83;;;1.87;;
60859;SDS011;46694;54.382;9.708;2022-08-03T08:37:01;4.03;;;1.73;;
60859;SDS011;46694;54.382;9.708;2022-08-03T08:39:41;4.03;;;1.97;;
60859;SDS011;46694;54.382;9.708;2022-08-03T08:42:21;13.17;;;2.77;;
60859;SDS011;46694;54.382;9.708;2022-08-03T08:45:00;3.73;;;1.40;;
60859;SDS011;46694;54.382;9.708;2022-08-03T08:47:43;4.43;;;1.87;;
60859;SDS011;46694;54.382;9.708;2022-08-03T08:50:25;10.23;;;2.20;;
60859;SDS011;46694;54.382;9.708;2022-08-03T08:53:05;3.70;;;1.77;;
60859;SDS011;46694;54.382;9.708;2022-08-03T08:55:46;2.97;;;2.13;;
60859;SDS011;46694;54.382;9.708;2022-08-03T08:58:28;7.77;;;2.10;;
60859;SDS011;46694;54.382;9.708;2022-08-03T09:01:13;6.20;;;1.80;;
60859;SDS011;46694;54.382;9.708;2022-08-03T09:03:57;13.60;;;1.90;;
60859;SDS011;46694;54.382;9.708;2022-08-03T09:06:37;12.87;;;1.60;;
60859;SDS011;46694;54.382;9.708;2022-08-03T09:09:16;13.97;;;2.10;;
60859;SDS011;46694;54.382;9.708;2022-08-03T09:11:56;6.40;;;1.73;;
60859;SDS011;46694;54.382;9.708;2022-08-03T09:14:35;11.53;;;1.90;;
60859;SDS011;46694;54.382;9.708;2022-08-03T09:17:15;8.60;;;2.10;;
60859;SDS011;46694;54.382;9.708;2022-08-03T09:20:04;8.13;;;2.30;;
60859;SDS011;46694;54.382;9.708;2022-08-03T09:22:50;7.00;;;2.20;;
60859;SDS011;46694;54.382;9.708;2022-08-03T09:28:15;6.83;;;1.90;;
60859;SDS011;46694;54.382;9.708;2022-08-03T09:30:57;8.50;;;1.90;;
60859;SDS011;46694;54.382;9.708;2022-08-03T09:33:47;6.73;;;1.67;;
60859;SDS011;46694;54.382;9.708;2022-08-03T09:36:37;12.17;;;2.23;;
60859;SDS011;46694;54.382;9.708;2022-08-03T09:39:22;7.43;;;2.40;;
60859;SDS011;46694;54.382;9.708;2022-08-03T09:42:10;5.83;;;1.97;;
60859;SDS011;46694;54.382;9.708;2022-08-03T09:44:55;10.00;;;2.20;;
60859;SDS011;46694;54.382;9.708;2022-08-03T09:47:35;6.70;;;1.57;;
60859;SDS011;46694;54.382;9.708;2022-08-03T09:50:15;3.00;;;1.47;;
60859;SDS011;46694;54.382;9.708;2022-08-03T09:52:55;11.00;;;1.97;;
60859;SDS011;46694;54.382;9.708;2022-08-03T09:55:48;9.33;;;2.60;;
60859;SDS011;46694;54.382;9.708;2022-08-03T09:58:38;6.70;;;2.10;;
60859;SDS011;46694;54.382;9.708;2022-08-03T10:01:31;14.53;;;2.07;;
60859;SDS011;46694;54.382;9.708;2022-08-03T10:04:15;7.93;;;1.80;;
60859;SDS011;46694;54.382;9.708;2022-08-03T10:07:02;6.53;;;1.60;;
60859;SDS011;46694;54.382;9.708;2022-08-03T10:09:55;10.33;;;1.70;;
60859;SDS011;46694;54.382;9.708;2022-08-03T10:12:37;11.23;;;2.40;;
60859;SDS011;46694;54.382;9.708;2022-08-03T10:15:18;7.70;;;2.07;;
60859;SDS011;46694;54.382;9.708;2022-08-03T10:17:58;11.47;;;2.07;;
60859;SDS011;46694;54.382;9.708;2022-08-03T10:20:51;17.50;;;2.07;;
60859;SDS011;46694;54.382;9.708;2022-08-03T10:23:33;4.53;;;1.83;;
60859;SDS011;46694;54.382;9.708;2022-08-03T10:26:15;8.00;;;2.00;;
60859;SDS011;46694;54.382;9.708;2022-08-03T10:29:02;11.03;;;2.20;;
60859;SDS011;46694;54.382;9.708;2022-08-03T10:31:45;13.53;;;2.43;;
60859;SDS011;46694;54.382;9.708;2022-08-03T10:34:28;5.20;;;2.27;;
60859;SDS011;46694;54.382;9.708;2022-08-03T10:37:13;13.30;;;2.87;;
60859;SDS011;46694;54.382;9.708;2022-08-03T10:39:55;6.50;;;2.00;;
60859;SDS011;46694;54.382;9.708;2022-08-03T10:42:38;11.83;;;2.67;;
60859;SDS011;46694;54.382;9.708;2022-08-03T10:45:25;8.23;;;2.40;;
60859;SDS011;46694;54.382;9.708;2022-08-03T10:48:05;12.60;;;2.50;;
60859;SDS011;46694;54.382;9.708;2022-08-03T10:50:47;16.40;;;2.50;;
60859;SDS011;46694;54.382;9.708;2022-08-03T10:53:34;12.00;;;2.63;;
60859;SDS011;46694;54.382;9.708;2022-08-03T11:02:31;18.43;;;2.50;;
60859;SDS011;46694;54.382;9.708;2022-08-03T11:05:49;5.13;;;2.03;;
60859;SDS011;46694;54.382;9.708;2022-08-03T11:08:32;13.07;;;2.20;;
60859;SDS011;46694;54.382;9.708;2022-08-03T11:14:04;11.00;;;2.47;;
60859;SDS011;46694;54.382;9.708;2022-08-03T11:17:06;7.37;;;2.27;;
60859;SDS011;46694;54.382;9.708;2022-08-03T11:19:50;11.30;;;2.77;;
60859;SDS011;46694;54.382;9.708;2022-08-03T11:22:47;7.60;;;1.83;;
60859;SDS011;46694;54.382;9.708;2022-08-03T11:25:29;14.70;;;2.13;;
60859;SDS011;46694;54.382;9.708;2022-08-03T11:28:50;5.80;;;1.77;;
60859;SDS011;46694;54.382;9.708;2022-08-03T11:34:10;16.53;;;2.40;;
60859;SDS011;46694;54.382;9.708;2022-08-03T11:40:02;7.90;;;1.97;;
60859;SDS011;46694;54.382;9.708;2022-08-03T11:42:42;8.27;;;2.67;;
60859;SDS011;46694;54.382;9.708;2022-08-03T11:45:22;6.20;;;1.87;;
60859;SDS011;46694;54.382;9.708;2022-08-03T11:48:12;5.90;;;2.13;;
60859;SDS011;46694;54.382;9.708;2022-08-03T11:50:54;5.53;;;1.83;;
60859;SDS011;46694;54.382;9.708;2022-08-03T11:53:34;7.10;;;2.60;;
60859;SDS011;46694;54.382;9.708;2022-08-03T11:56:14;3.03;;;1.40;;
60859;SDS011;46694;54.382;9.708;2022-08-03T11:58:55;9.40;;;1.87;;
60859;SDS011;46694;54.382;9.708;2022-08-03T12:01:35;7.50;;;1.70;;
60859;SDS011;46694;54.382;9.708;2022-08-03T12:04:16;3.83;;;1.43;;
60859;SDS011;46694;54.382;9.708;2022-08-03T12:07:02;14.20;;;2.00;;
60859;SDS011;46694;54.382;9.708;2022-08-03T12:09:41;7.10;;;1.40;;
60859;SDS011;46694;54.382;9.708;2022-08-03T12:12:22;8.57;;;2.60;;
60859;SDS011;46694;54.382;9.708;2022-08-03T12:15:02;9.03;;;1.53;;
60859;SDS011;46694;54.382;9.708;2022-08-03T12:17:43;7.23;;;1.50;;
60859;SDS011;46694;54.382;9.708;2022-08-03T12:20:24;5.23;;;1.70;;
60859;SDS011;46694;54.382;9.708;2022-08-03T12:23:06;5.50;;;1.50;;
60859;SDS011;46694;54.382;9.708;2022-08-03T12:25:47;5.70;;;1.93;;
60859;SDS011;46694;54.382;9.708;2022-08-03T12:28:27;7.90;;;1.63;;
60859;SDS011;46694;54.382;9.708;2022-08-03T12:31:07;6.17;;;1.67;;
60859;SDS011;46694;54.382;9.708;2022-08-03T12:34:05;6.80;;;1.73;;
60859;SDS011;46694;54.382;9.708;2022-08-03T12:36:50;6.67;;;1.27;;
60859;SDS011;46694;54.382;9.708;2022-08-03T12:39:34;7.53;;;1.43;;
60859;SDS011;46694;54.382;9.708;2022-08-03T12:42:14;13.30;;;1.90;;
60859;SDS011;46694;54.382;9.708;2022-08-03T12:44:53;9.63;;;1.70;;
60859;SDS011;46694;54.382;9.708;2022-08-03T12:47:48;10.63;;;1.70;;
60859;SDS011;46694;54.382;9.708;2022-08-03T12:50:36;7.00;;;1.47;;
60859;SDS011;46694;54.382;9.708;2022-08-03T12:53:27;7.70;;;1.50;;
60859;SDS011;46694;54.382;9.708;2022-08-03T12:56:07;6.50;;;1.60;;
60859;SDS011;46694;54.382;9.708;2022-08-03T12:58:47;4.50;;;1.57;;
60859;SDS011;46694;54.382;9.708;2022-08-03T13:01:34;3.17;;;1.13;;
60859;SDS011;46694;54.382;9.708;2022-08-03T13:04:24;6.83;;;1.57;;
60859;SDS011;46694;54.382;9.708;2022-08-03T13:07:13;8.90;;;1.70;;
60859;SDS011;46694;54.382;9.708;2022-08-03T13:09:54;4.20;;;1.50;;
60859;SDS011;46694;54.382;9.708;2022-08-03T13:12:44;3.03;;;1.00;;
60859;SDS011;46694;54.382;9.708;2022-08-03T13:15:26;4.57;;;1.30;;
60859;SDS011;46694;54.382;9.708;2022-08-03T13:18:07;4.97;;;1.20;;
60859;SDS011;46694;54.382;9.708;2022-08-03T13:20:46;6.13;;;1.77;;
60859;SDS011;46694;54.382;9.708;2022-08-03T13:23:26;1.77;;;1.20;;
60859;SDS011;46694;54.382;9.708;2022-08-03T13:26:06;7.00;;;1.70;;
60859;SDS011;46694;54.382;9.708;2022-08-03T13:28:45;2.83;;;0.70;;
60859;SDS011;46694;54.382;9.708;2022-08-03T13:31:25;1.53;;;1.10;;
60859;SDS011;46694;54.382;9.708;2022-08-03T13:34:05;6.23;;;1.27;;
60859;SDS011;46694;54.382;9.708;2022-08-03T13:36:44;6.80;;;1.00;;
60859;SDS011;46694;54.382;9.708;2022-08-03T13:39:24;3.10;;;1.43;;
60859;SDS011;46694;54.382;9.708;2022-08-03T13:42:03;4.57;;;1.40;;
60859;SDS011;46694;54.382;9.708;2022-08-03T13:44:43;4.77;;;1.40;;
60859;SDS011;46694;54.382;9.708;2022-08-03T13:47:23;7.30;;;1.70;;
60859;SDS011;46694;54.382;9.708;2022-08-03T13:50:02;8.43;;;1.60;;
60859;SDS011;46694;54.382;9.708;2022-08-03T13:52:42;3.70;;;1.20;;
60859;SDS011;46694;54.382;9.708;2022-08-03T13:55:24;10.43;;;1.37;;
60859;SDS011;46694;54.382;9.708;2022-08-03T13:58:03;3.03;;;1.07;;
60859;SDS011;46694;54.382;9.708;2022-08-03T14:00:45;7.10;;;1.30;;
60859;SDS011;46694;54.382;9.708;2022-08-03T14:03:25;8.53;;;1.00;;
60859;SDS011;46694;54.382;9.708;2022-08-03T14:06:05;6.60;;;1.40;;
60859;SDS011;46694;54.382;9.708;2022-08-03T14:08:44;2.03;;;1.10;;
60859;SDS011;46694;54.382;9.708;2022-08-03T14:11:25;6.10;;;1.30;;
60859;SDS011;46694;54.382;9.708;2022-08-03T14:14:06;3.03;;;0.97;;
60859;SDS011;46694;54.382;9.708;2022-08-03T14:16:45;10.70;;;1.50;;
60859;SDS011;46694;54.382;9.708;2022-08-03T14:19:25;3.73;;;1.20;;
60859;SDS011;46694;54.382;9.708;2022-08-03T14:22:04;3.17;;;1.10;;
60859;SDS011;46694;54.382;9.708;2022-08-03T14:24:44;5.30;;;1.20;;
60859;SDS011;46694;54.382;9.708;2022-08-03T14:27:24;2.90;;;1.43;;
60859;SDS011;46694;54.382;9.708;2022-08-03T14:30:04;3.90;;;1.20;;
60859;SDS011;46694;54.382;9.708;2022-08-03T14:32:44;2.87;;;1.10;;
60859;SDS011;46694;54.382;9.708;2022-08-03T14:35:24;1.70;;;1.10;;
60859;SDS011;46694;54.382;9.708;2022-08-03T14:38:04;3.60;;;1.20;;
60859;SDS011;46694;54.382;9.708;2022-08-03T14:40:43;3.50;;;1.30;;
60859;SDS011;46694;54.382;9.708;2022-08-03T14:43:23;3.93;;;1.20;;
60859;SDS011;46694;54.382;9.708;2022-08-03T14:46:03;3.03;;;1.13;;
60859;SDS011;46694;54.382;9.708;2022-08-03T14:48:42;0.83;;;0.70;;
60859;SDS011;46694;54.382;9.708;2022-08-03T14:51:22;4.60;;;1.30;;
60859;SDS011;46694;54.382;9.708;2022-08-03T14:54:01;3.90;;;0.90;;
60859;SDS011;46694;54.382;9.708;2022-08-03T14:56:41;3.13;;;1.00;;
60859;SDS011;46694;54.382;9.708;2022-08-03T14:59:21;12.07;;;1.40;;
60859;SDS011;46694;54.382;9.708;2022-08-03T15:02:00;9.87;;;1.37;;
60859;SDS011;46694;54.382;9.708;2022-08-03T15:04:40;3.87;;;1.73;;
60859;SDS011;46694;54.382;9.708;2022-08-03T15:07:19;11.17;;;1.40;;
60859;SDS011;46694;54.382;9.708;2022-08-03T15:09:59;9.00;;;1.63;;
60859;SDS011;46694;54.382;9.708;2022-08-03T15:12:38;6.00;;;1.33;;
60859;SDS011;46694;54.382;9.708;2022-08-03T15:15:18;3.77;;;1.40;;
60859;SDS011;46694;54.382;9.708;2022-08-03T15:17:58;1.83;;;0.97;;
60859;SDS011;46694;54.382;9.708;2022-08-03T15:20:37;5.87;;;1.67;;
60859;SDS011;46694;54.382;9.708;2022-08-03T15:23:17;8.20;;;1.23;;
60859;SDS011;46694;54.382;9.708;2022-08-03T15:25:57;7.93;;;1.80;;
60859;SDS011;46694;54.382;9.708;2022-08-03T15:28:36;4.10;;;1.73;;
60859;SDS011;46694;54.382;9.708;2022-08-03T15:31:20;5.50;;;1.20;;
60859;SDS011;46694;54.382;9.708;2022-08-03T15:34:01;7.40;;;1.70;;
60859;SDS011;46694;54.382;9.708;2022-08-03T15:36:41;5.17;;;1.73;;
60859;SDS011;46694;54.382;9.708;2022-08-03T15:39:20;8.43;;;1.80;;
60859;SDS011;46694;54.382;9.708;2022-08-03T15:42:00;2.67;;;1.43;;
60859;SDS011;46694;54.382;9.708;2022-08-03T15:44:39;5.03;;;1.80;;
60859;SDS011;46694;54.382;9.708;2022-08-03T15:47:19;5.77;;;1.60;;
60859;SDS011;46694;54.382;9.708;2022-08-03T15:49:58;6.13;;;1.50;;
60859;SDS011;46694;54.382;9.708;2022-08-03T15:52:38;6.93;;;2.20;;
60859;SDS011;46694;54.382;9.708;2022-08-03T15:55:18;5.23;;;1.10;;
60859;SDS011;46694;54.382;9.708;2022-08-03T15:57:57;7.30;;;1.77;;
60859;SDS011;46694;54.382;9.708;2022-08-03T16:00:37;6.93;;;1.60;;
60859;SDS011;46694;54.382;9.708;2022-08-03T16:03:17;5.17;;;1.90;;
60859;SDS011;46694;54.382;9.708;2022-08-03T16:05:57;6.43;;;2.07;;
60859;SDS011;46694;54.382;9.708;2022-08-03T16:08:37;5.83;;;2.20;;
60859;SDS011;46694;54.382;9.708;2022-08-03T16:11:16;6.57;;;1.60;;
60859;SDS011;46694;54.382;9.708;2022-08-03T16:13:56;7.07;;;1.60;;
60859;SDS011;46694;54.382;9.708;2022-08-03T16:16:35;12.07;;;2.37;;
60859;SDS011;46694;54.382;9.708;2022-08-03T16:19:18;15.20;;;1.87;;
60859;SDS011;46694;54.382;9.708;2022-08-03T16:21:58;7.17;;;1.70;;
60859;SDS011;46694;54.382;9.708;2022-08-03T16:24:38;12.73;;;2.90;;
60859;SDS011;46694;54.382;9.708;2022-08-03T16:27:17;6.20;;;1.87;;
60859;SDS011;46694;54.382;9.708;2022-08-03T16:29:57;9.20;;;2.10;;
60859;SDS011;46694;54.382;9.708;2022-08-03T16:32:37;9.70;;;2.10;;
60859;SDS011;46694;54.382;9.708;2022-08-03T16:35:17;10.00;;;2.10;;
60859;SDS011;46694;54.382;9.708;2022-08-03T16:37:57;5.17;;;2.03;;
60859;SDS011;46694;54.382;9.708;2022-08-03T16:40:36;13.33;;;2.30;;